Hartney, Canada
Current Conditions -  °F | °C
As of 7:00 PM on Monday 20 Oct 2014 (Local Time) from CYBR Reporting Station
Clear Clear  
Wind Chill: 42°   Ceiling: Unl
Heat Index: 48°   Visibility: 15mi
Dew Point: 43°   Wind: 15mph
Humidity: 82%   Direction: 70°ENE
Pressure: 29.95"   Gusts: 21mph
Location:  49.48°N, 100.52°W
Report Text: CYBR 210000Z 07013G18KT 15SM SKC 09/06 A2995 RMK SLP160
Loading
Personal Weather Stations






























Interactive Weather Map
Tropical Storm Tracking
New forecast layout! Learn more

10-Day Weather Forecast

Advertisements
Track Severe Weather on mobile